createdAt,value
2017-07-11T04:43:17.596Z,76.90
2017-07-11T04:45:52.157Z,76.90
2017-07-11T04:48:42.064Z,76.80
2017-07-11T04:51:13.047Z,76.80
2017-07-11T04:53:45.673Z,76.60
2017-07-11T05:19:31.763Z,74.90
2017-07-11T05:22:02.754Z,74.60
2017-07-11T05:24:34.763Z,74.50
2017-07-11T05:33:01.060Z,74.10
2017-07-11T05:35:39.937Z,74.00
2017-07-11T05:41:12.787Z,73.40
2017-07-11T05:43:50.484Z,73.40
2017-07-11T05:46:28.930Z,73.20
2017-07-11T05:49:02.357Z,73.00
2017-07-11T05:51:41.031Z,72.60
2017-07-11T05:54:16.608Z,72.40
2017-07-11T05:56:52.409Z,73.00
2017-07-11T05:59:39.728Z,72.20
2017-07-11T06:08:03.052Z,72.20
2017-07-11T06:10:38.105Z,72.00
2017-07-11T06:13:09.095Z,72.30
2017-07-11T06:15:40.503Z,72.20
2017-07-11T06:18:16.678Z,72.10
2017-07-11T06:20:47.436Z,72.30
2017-07-11T06:23:19.668Z,72.20
2017-07-11T06:25:54.583Z,71.80
2017-07-11T06:28:30.543Z,71.70
2017-07-11T06:31:01.973Z,71.80
2017-07-11T06:33:33.517Z,71.70
2017-07-11T06:36:04.526Z,71.50
2017-07-11T06:38:35.391Z,71.40
2017-07-11T06:41:06.515Z,71.40
2017-07-11T06:43:47.138Z,71.20
2017-07-11T06:46:19.317Z,71.20
2017-07-11T06:48:50.504Z,71.30
2017-07-11T06:51:26.122Z,71.20
2017-07-11T06:54:06.944Z,70.90
2017-07-11T06:56:38.978Z,70.50
2017-07-11T06:59:13.333Z,70.40
2017-07-11T07:01:49.258Z,70.60
2017-07-11T07:04:30.463Z,70.50
2017-07-11T07:07:01.692Z,70.60
2017-07-11T07:09:40.166Z,69.90
2017-07-11T07:12:14.797Z,69.80
2017-07-11T07:15:03.420Z,70.00
2017-07-11T07:17:46.463Z,69.80
2017-07-11T07:20:17.479Z,69.60
2017-07-11T07:22:48.542Z,69.50
2017-07-11T07:25:20.163Z,69.50
2017-07-11T07:28:01.701Z,69.60
2017-07-11T07:30:33.695Z,69.10
2017-07-11T07:33:15.984Z,68.90
2017-07-11T07:38:40.965Z,68.30
2017-07-11T07:41:25.078Z,68.00
2017-07-11T07:47:05.696Z,68.00
2017-07-11T07:49:44.612Z,67.90
2017-07-11T07:52:21.022Z,67.80
2017-07-11T07:55:00.638Z,67.60
2017-07-11T08:03:23.648Z,66.70
2017-07-11T08:06:11.098Z,66.30
2017-07-11T08:08:42.895Z,66.30
2017-07-11T08:11:15.311Z,66.30
2017-07-11T08:13:58.044Z,66.20
2017-07-11T08:31:13.432Z,65.60
2017-07-11T08:33:46.754Z,65.80
2017-07-11T08:36:17.631Z,65.70
2017-07-11T08:38:52.451Z,65.20
2017-07-11T08:59:40.933Z,64.70
2017-07-11T09:05:22.388Z,63.90
2017-07-11T09:10:51.997Z,63.20
2017-07-11T09:39:38.247Z,60.60
2017-07-11T09:48:11.802Z,59.70
2017-07-11T09:50:45.699Z,59.40
2017-07-11T10:33:39.826Z,55.60
2017-07-11T10:36:11.184Z,55.20
2017-07-11T10:38:41.986Z,55.00
2017-07-11T10:41:12.807Z,54.70
2017-07-11T10:43:44.056Z,54.80
2017-07-11T10:46:15.467Z,54.40
2017-07-11T10:48:49.304Z,55.00
2017-07-11T10:51:29.585Z,55.10
2017-07-11T10:54:01.068Z,54.30
2017-07-11T10:56:31.927Z,54.40
2017-07-11T10:59:03.104Z,54.10
2017-07-11T11:01:33.955Z,53.60
2017-07-11T11:04:05.055Z,53.40
2017-07-11T11:06:36.289Z,53.10
2017-07-11T11:09:09.690Z,52.40
2017-07-11T11:11:43.839Z,51.60
2017-07-11T11:14:15.085Z,51.10
2017-07-11T11:16:46.700Z,50.70
2017-07-11T11:19:17.525Z,50.70
2017-07-11T11:21:52.295Z,50.50
2017-07-11T11:24:23.238Z,50.00
2017-07-11T11:26:57.068Z,49.70
2017-07-11T11:29:28.156Z,49.90
2017-07-11T11:32:01.784Z,49.80
2017-07-11T11:34:33.297Z,50.30
2017-07-11T11:37:05.213Z,50.50
2017-07-11T11:39:39.314Z,50.20
2017-07-11T11:42:13.437Z,49.70
2017-07-11T11:44:47.201Z,49.40
2017-07-11T11:47:22.652Z,49.60
2017-07-11T11:49:53.903Z,49.80
2017-07-11T11:52:24.776Z,49.30
2017-07-11T12:03:34.433Z,48.60
2017-07-11T12:06:05.328Z,48.40
2017-07-11T12:08:36.396Z,48.20
2017-07-11T12:11:15.095Z,48.60
2017-07-11T12:13:52.278Z,49.10
2017-07-11T12:16:43.278Z,48.70
2017-07-11T14:20:24.283Z,46.20
2017-07-11T14:23:08.509Z,46.10
2017-07-11T14:28:53.085Z,46.10
2017-07-11T14:31:33.586Z,46.10
2017-07-11T14:40:39.630Z,46.00
2017-07-11T14:43:14.319Z,46.20
2017-07-11T14:45:48.362Z,46.00
2017-07-11T14:48:19.268Z,45.90
2017-07-11T14:50:56.865Z,46.00
2017-07-11T14:53:36.871Z,46.20
2017-07-11T14:56:12.788Z,46.00
2017-07-11T14:59:06.084Z,46.10
2017-07-11T15:01:37.418Z,46.10
2017-07-11T15:04:09.013Z,46.10
2017-07-11T15:06:45.077Z,46.40
2017-07-11T15:09:20.759Z,46.80
2017-07-11T15:12:11.731Z,47.10
2017-07-11T15:14:59.967Z,47.50
2017-07-11T15:17:48.640Z,47.90
2017-07-11T15:20:37.174Z,48.60
2017-07-11T15:23:09.297Z,49.50
2017-07-11T15:25:41.453Z,50.40
2017-07-11T15:28:13.266Z,51.60
2017-07-11T15:30:44.745Z,52.90
2017-07-11T15:33:16.403Z,54.30
2017-07-11T15:35:47.885Z,55.60
2017-07-11T15:47:13.774Z,59.50
2017-07-11T18:22:35.093Z,64.20
2017-07-11T18:25:08.814Z,64.50
2017-07-11T18:27:43.947Z,65.20
2017-07-11T18:30:12.489Z,66.10
2017-07-11T18:32:43.358Z,66.40
2017-07-11T18:35:14.227Z,66.70
2017-07-11T18:37:47.801Z,67.60
2017-07-11T18:40:18.843Z,68.70
2017-07-11T18:42:52.587Z,69.30
2017-07-11T18:45:26.269Z,69.90
2017-07-11T18:47:57.786Z,70.30
2017-07-11T18:50:28.741Z,70.70
2017-07-11T18:52:59.967Z,71.00
2017-07-11T18:55:33.702Z,71.60
2017-07-11T18:58:07.938Z,72.00
2017-07-11T19:00:41.485Z,72.60
2017-07-11T19:03:15.844Z,73.00
2017-07-11T19:05:49.343Z,73.50
2017-07-11T19:08:23.106Z,73.90
2017-07-11T19:10:54.891Z,74.30
2017-07-11T19:13:29.032Z,74.40
2017-07-11T19:16:03.227Z,74.80
2017-07-11T19:18:36.959Z,75.20
2017-07-11T19:21:10.683Z,75.30
2017-07-11T19:23:39.990Z,75.40
2017-07-11T19:26:13.565Z,75.70
2017-07-11T19:28:45.697Z,75.70
2017-07-11T19:31:18.686Z,75.80
2017-07-11T19:33:50.171Z,76.10
2017-07-11T19:36:21.398Z,76.50
2017-07-11T19:38:50.362Z,76.80
2017-07-11T19:41:21.723Z,77.10
2017-07-11T19:43:53.290Z,77.50
2017-07-11T19:46:24.137Z,77.60
2017-07-11T19:48:55.721Z,77.70
2017-07-11T19:51:27.083Z,77.80
2017-07-11T19:53:57.727Z,77.90
2017-07-11T19:56:28.951Z,78.00
2017-07-11T19:58:59.798Z,78.00
2017-07-11T20:01:28.969Z,78.10
2017-07-11T20:03:59.850Z,78.40
2017-07-11T20:06:31.378Z,78.70
2017-07-11T20:09:01.979Z,78.90
2017-07-11T20:11:32.904Z,79.00
2017-07-11T20:14:03.821Z,79.10
2017-07-11T20:16:34.810Z,79.20
2017-07-11T20:19:05.598Z,79.20
2017-07-11T20:21:36.595Z,79.30
2017-07-11T20:24:07.530Z,79.50
2017-07-11T20:26:39.514Z,79.70
2017-07-11T20:29:10.684Z,79.80
2017-07-11T20:31:42.205Z,79.90
2017-07-11T20:34:12.882Z,80.00
2017-07-11T20:36:43.814Z,80.10
2017-07-11T20:39:14.879Z,80.10
2017-07-11T20:41:45.980Z,80.30
2017-07-11T20:44:19.640Z,80.20
2017-07-11T20:46:49.143Z,80.40
2017-07-11T20:49:20.156Z,80.50
2017-07-11T20:51:53.906Z,80.50
2017-07-11T20:54:25.254Z,80.50
2017-07-11T20:56:56.226Z,80.50
2017-07-11T20:59:27.306Z,80.60
2017-07-11T21:01:58.322Z,80.70
2017-07-11T21:05:29.066Z,80.70
2017-07-11T21:07:57.100Z,81.20
2017-07-11T21:10:24.704Z,81.00
2017-07-11T21:12:52.334Z,81.00
2017-07-11T21:15:20.001Z,81.20
2017-07-11T21:17:47.630Z,81.20
2017-07-11T21:20:15.270Z,81.20
2017-07-11T21:22:43.654Z,81.40
2017-07-11T21:25:12.211Z,81.40
2017-07-11T21:27:40.176Z,81.30
2017-07-11T21:30:08.190Z,81.20
2017-07-11T21:32:35.801Z,81.10
2017-07-11T21:35:03.467Z,81.00
2017-07-11T21:37:31.110Z,81.00
2017-07-11T21:40:03.795Z,81.30
2017-07-11T21:42:31.474Z,81.40
2017-07-11T21:44:59.070Z,81.50
2017-07-11T21:47:26.710Z,81.70
2017-07-11T21:49:54.331Z,82.00
2017-07-11T21:52:21.967Z,82.10
2017-07-11T21:54:49.643Z,82.10
2017-07-11T21:57:17.334Z,82.30
2017-07-11T21:59:45.002Z,82.60
2017-07-11T22:02:12.652Z,82.80
2017-07-11T22:04:40.308Z,82.80
2017-07-11T22:07:08.063Z,82.90
2017-07-11T22:09:35.741Z,82.90
2017-07-11T22:12:03.631Z,83.00
2017-07-11T22:14:31.336Z,83.00
2017-07-11T22:16:58.983Z,83.00
2017-07-11T22:19:26.649Z,83.10
2017-07-11T22:21:54.464Z,83.10
2017-07-11T22:24:22.087Z,83.20
2017-07-11T22:26:50.110Z,83.20
2017-07-11T22:29:17.751Z,83.40
2017-07-11T22:31:45.563Z,83.30
2017-07-11T22:34:13.224Z,83.30
2017-07-11T22:36:40.923Z,83.20
2017-07-11T22:39:08.947Z,83.30
2017-07-11T22:41:36.906Z,83.30
2017-07-11T22:44:04.566Z,83.30
2017-07-11T22:46:32.188Z,83.50
2017-07-11T22:48:59.815Z,83.50
2017-07-11T22:51:27.489Z,83.60
2017-07-11T22:53:55.482Z,83.70
2017-07-11T22:56:23.105Z,83.80
2017-07-11T22:58:51.044Z,83.80
2017-07-11T23:01:18.681Z,83.80
2017-07-11T23:03:46.360Z,83.90
2017-07-11T23:06:14.801Z,83.90
2017-07-11T23:08:42.459Z,83.80
2017-07-11T23:11:15.548Z,83.90
2017-07-11T23:13:43.229Z,84.10
2017-07-11T23:16:10.881Z,84.10
2017-07-11T23:18:38.555Z,84.10
2017-07-11T23:21:06.143Z,84.10
2017-07-11T23:23:34.591Z,84.20
2017-07-11T23:26:02.219Z,84.10
2017-07-11T23:28:30.641Z,84.10
2017-07-11T23:30:58.288Z,84.10
2017-07-11T23:33:25.955Z,84.00
2017-07-11T23:35:53.613Z,84.00
2017-07-11T23:38:21.285Z,84.00
2017-07-11T23:40:48.937Z,84.00
2017-07-11T23:43:17.063Z,83.90
2017-07-11T23:45:45.478Z,84.10
2017-07-11T23:48:13.170Z,84.00
2017-07-11T23:50:40.874Z,84.10
2017-07-11T23:53:09.305Z,84.30
2017-07-11T23:55:36.968Z,84.20
2017-07-11T23:58:04.779Z,84.20
